Terminal Aerodrome Forecast
Issued by NWS Amarillo, TX

Home | Current Version | Previous Version | Text Only | Print | Product List | Glossary On
Versions: 1 2 3 4 5 6 7 8 9 10 11 12 13 14 15 16 17 18 19
000
FTUS44 KAMA 021936 AAA
TAFGUY
TAF AMD
KGUY 021936Z 0220/0318 20015G25KT P6SM FEW200
     FM030100 17015KT P6SM SCT200
     FM031500 20016KT P6SM FEW200=

USA.gov is the U.S. government's official web portal to all federal, state and local government web resources and services.